AirNav   TITAN Aviation Fuels
 
 1070 users online  

AZ94 Biltmore Golf Course Heliport
Phoenix, Arizona, USA

GOING TO PHOENIX?


FAA INFORMATION EFFECTIVE 08 SEPTEMBER 2022

Location

FAA Identifier: AZ94
Lat/Long: 33-31-17.1530N 112-01-10.5310W
33-31.285883N 112-01.175517W
33.5214314,-112.0195919
(estimated)
Elevation: 1240 ft. / 378 m (estimated)
Variation: 13E (1985)
Time zone: UTC -7 (year round; does not observe DST)
Zip code: 85016

Heliport Operations

Heliport use: Private use. Permission required prior to landing
Activation date: 10/1985
Control tower: no
ARTCC: ALBUQUERQUE CENTER
FSS: PRESCOTT FLIGHT SERVICE STATION
Attendance: UNATNDD
Segmented circle: no

Heliport Communications

WX ASOS at PHX (5 nm S): PHONE 602-231-8557
WX ASOS at SDL (8 nm NE): PHONE 480-483-3049
WX ASOS at DVT (10 nm N): 126.5 (623-587-7764)
WX AWOS-3 at GEU (14 nm W): PHONE 623-877-8609
WX ASOS at FFZ (15 nm E): PHONE 480-641-4111
WX AWOS-3PT at CHD (18 nm SE): PHONE 480-814-9952
WX AWOS-1 at 18AZ (19 nm N): 125.625 (480-488-7882)

Nearby radio navigation aids

VOR radial/distance  VOR name  Freq  Var
PXRr323/5.9PHOENIX VORTAC115.6012E
IWAr292/22.6WILLIE VORTAC113.3013E
TFDr340/38.5STANFIELD VORTAC114.8012E

Heliport Services

Runway Information

Helipad H1

Dimensions: 80 x 40 ft. / 24 x 12 m
Surface: asphalt
Traffic pattern: leftleft

Heliport Ownership and Management from official FAA records

Ownership: Privately-owned
Owner: ART MARTORI
PO BOX 1029
GLENDALE, AZ 85311
Phone 602-937-1641
Manager: ART MARTORI
PO BOX 1029
GLENDALE, AZ 85311
Phone 602-937-1641

Additional Remarks

FOR CD CTC PHOENIX APCH AT 602-306-2565.

Instrument Procedures

There are no published instrument procedures at AZ94.

Some nearby airports with instrument procedures:

KPHX - Phoenix Sky Harbor International Airport (5 nm S)
KSDL - Scottsdale Airport (8 nm NE)
KDVT - Phoenix Deer Valley Airport (10 nm N)
KGEU - Glendale Municipal Airport (14 nm W)
P19 - Stellar Airpark (14 nm S)
KFFZ - Falcon Field Airport (15 nm E)
KLUF - Luke Air Force Base (18 nm W)
KCHD - Chandler Municipal Airport (18 nm SE)
KGYR - Phoenix Goodyear Airport (19 nm W)
 
Loc | Ops | Rwys | IFR | FBO | Links
Com | Nav | Svcs | Stats | Notes
Area around AZ94 (Biltmore Golf Course Heliport)
 
Road maps at: MapQuest Bing Google
 
Aerial photo
No photo
 
Sectional chart

 
Airport distance calculator
Flying to Biltmore Golf Course Heliport? Find the distance to fly.

From to AZ94

Sunrise and sunset
Times for 02-Oct-2022
 Local
(UTC-7)
 Zulu
(UTC)
Morning civil twilight05:5912:59
Sunrise06:2413:24
Sunset18:1101:11
Evening civil twilight18:3601:36

Current date and time
Zulu (UTC)  02-Oct-2022 19:12:11
Local (UTC-7)  02-Oct-2022 12:12:11
 
METAR
KPHX 
6nm S 
021851Z 12006KT 10SM FEW100 FEW250 33/13 A2990 RMK AO2 SLP104 TCU DSNT NW T03280133 $
KSDL 
8nm NE 
021853Z VRB06KT 10SM CLR 32/13 A2994 RMK AO2 SLP111 T03170128
KDVT 
10nm N 
021853Z 20008G16KT 10SM CLR 32/13 A2993 RMK AO2 SLP109 T03220128
KGEU 
14nm W 
021852Z VRB03KT 10SM SKC 33/15 A2990
KFFZ 
16nm E 
021854Z VRB04KT 10SM CLR 32/14 A2992 RMK AO2 SLP106 T03170139
KLUF 
17nm W 
021855Z AUTO 00000KT 10SM CLR 33/14 A2990 RMK AO2 SLP110 T03280144 $
KCHD 
18nm SE 
021847Z 00000KT 10SM CLR 33/14 A2992
KGYR 
18nm W 
021747Z VRB04KT 10SM FEW070 31/18 A2994
TAF
KPHX 
6nm S 
021720Z 0218/0324 16007KT P6SM FEW100 FEW150 FM022200 21007KT P6SM FEW100 FEW150 FM030000 25006KT P6SM FEW100 FEW150 FM030400 10005KT P6SM FEW100 SCT150 SCT250 FM031700 14008KT P6SM FEW100 FEW150 FM032100 28008KT P6SM FEW100 FEW150
KSDL 
8nm NE 
021720Z 0218/0318 VRB04KT P6SM FEW100 FEW150 FM022100 21007KT P6SM FEW100 FEW150 FM030300 04005KT P6SM FEW100 SCT150 SCT250 FM030800 VRB03KT P6SM FEW100 FEW150
KDVT 
10nm N 
021720Z 0218/0318 18008KT P6SM FEW100 FEW150 FM022200 23009KT P6SM FEW100 FEW150 FM030400 03008KT P6SM FEW100 SCT150 SCT250 FM030900 VRB04KT P6SM FEW100 FEW150
NOTAMs
Click for the latest NOTAMs
NOTAMs are issued by the DoD/FAA and will open in a separate window not controlled by AirNav.

 

 
 

Would you like to see your business listed on this page?

 If your business provides an interesting product or service to pilots, flight crews, aircraft, or users of the Biltmore Golf Course Heliport, you should consider listing it here.  To start the listing process, click on the button below
 
Add a business
 

Other Pages about Biltmore Golf Course Heliport

Update a link
 
Copyright © AirNav, LLC. All rights reserved. Privacy Policy  Contact